Mill Creek, California
Current Conditions -  °F | °C
As of 3:54 PM on Wednesday 28 Jan 2015 (Local Time) from KRBL Reporting Station
Clear Clear  
Wind Chill: 71°   Ceiling: Unl
Heat Index: 71°   Visibility: 10mi
Dew Point: 40°   Wind: 8mph
Humidity: 32%   Direction: 350°N
Pressure: 30.14"   Gusts: NA
Location:  40.33°N, 121.52°W
Report Text: KRBL 282354Z AUTO 35007KT 10SM CLR 22/04 A3014 RMK AO2 SLP206 T02170044 10222 20122 56019
Loading
Personal Weather Stations






























Interactive Weather Map New forecast layout! Learn more

10-Day Weather Forecast

Advertisements
Track Severe Weather on mobile